sensor_id;sensor_type;location;lat;lon;timestamp;temperature;humidity
53880;DHT22;39791;53.184;5.486;2024-02-26T00:02:16;13.20;99.90
53880;DHT22;39791;53.184;5.486;2024-02-26T00:04:42;13.10;99.90
53880;DHT22;39791;53.184;5.486;2024-02-26T00:07:08;13.10;99.90
53880;DHT22;39791;53.184;5.486;2024-02-26T00:09:33;12.90;99.90
53880;DHT22;39791;53.184;5.486;2024-02-26T00:12:04;13.20;99.90
53880;DHT22;39791;53.184;5.486;2024-02-26T00:14:31;12.80;99.90
53880;DHT22;39791;53.184;5.486;2024-02-26T00:16:57;12.90;99.90
53880;DHT22;39791;53.184;5.486;2024-02-26T00:19:22;13.20;99.90
53880;DHT22;39791;53.184;5.486;2024-02-26T00:21:48;13.00;99.90
53880;DHT22;39791;53.184;5.486;2024-02-26T00:24:14;13.10;99.90
53880;DHT22;39791;53.184;5.486;2024-02-26T00:26:39;12.80;99.90
53880;DHT22;39791;53.184;5.486;2024-02-26T00:29:05;13.20;99.90
53880;DHT22;39791;53.184;5.486;2024-02-26T00:31:31;12.80;99.90
53880;DHT22;39791;53.184;5.486;2024-02-26T00:33:56;13.10;99.90
53880;DHT22;39791;53.184;5.486;2024-02-26T00:36:22;13.90;99.90
53880;DHT22;39791;53.184;5.486;2024-02-26T00:38:48;12.90;99.90
53880;DHT22;39791;53.184;5.486;2024-02-26T00:41:20;13.00;99.90
53880;DHT22;39791;53.184;5.486;2024-02-26T00:43:46;12.90;99.90
53880;DHT22;39791;53.184;5.486;2024-02-26T00:46:11;13.00;99.90
53880;DHT22;39791;53.184;5.486;2024-02-26T00:48:37;13.30;99.90
53880;DHT22;39791;53.184;5.486;2024-02-26T00:51:03;13.30;99.90
53880;DHT22;39791;53.184;5.486;2024-02-26T00:53:33;13.10;99.90
53880;DHT22;39791;53.184;5.486;2024-02-26T00:55:58;13.00;99.90
53880;DHT22;39791;53.184;5.486;2024-02-26T00:58:25;13.00;99.90
53880;DHT22;39791;53.184;5.486;2024-02-26T01:00:50;13.20;99.90
53880;DHT22;39791;53.184;5.486;2024-02-26T01:03:17;13.40;99.90
53880;DHT22;39791;53.184;5.486;2024-02-26T01:05:43;13.10;99.90
53880;DHT22;39791;53.184;5.486;2024-02-26T01:08:08;13.40;99.90
53880;DHT22;39791;53.184;5.486;2024-02-26T01:10:34;13.10;99.90
53880;DHT22;39791;53.184;5.486;2024-02-26T01:13:00;13.40;99.90
53880;DHT22;39791;53.184;5.486;2024-02-26T01:15:26;13.30;99.90
53880;DHT22;39791;53.184;5.486;2024-02-26T01:17:52;13.10;99.90
53880;DHT22;39791;53.184;5.486;2024-02-26T01:20:18;13.40;99.90
53880;DHT22;39791;53.184;5.486;2024-02-26T01:22:44;13.20;99.90
53880;DHT22;39791;53.184;5.486;2024-02-26T01:25:10;13.20;99.90
53880;DHT22;39791;53.184;5.486;2024-02-26T01:27:36;13.20;99.90
53880;DHT22;39791;53.184;5.486;2024-02-26T01:30:03;13.20;99.90
53880;DHT22;39791;53.184;5.486;2024-02-26T01:32:29;13.10;99.90
53880;DHT22;39791;53.184;5.486;2024-02-26T01:34:55;13.10;99.90
53880;DHT22;39791;53.184;5.486;2024-02-26T01:37:21;13.30;99.90
53880;DHT22;39791;53.184;5.486;2024-02-26T01:39:46;13.10;99.90
53880;DHT22;39791;53.184;5.486;2024-02-26T01:42:12;13.30;99.90
53880;DHT22;39791;53.184;5.486;2024-02-26T01:44:38;13.10;99.90
53880;DHT22;39791;53.184;5.486;2024-02-26T01:47:05;13.20;99.90
53880;DHT22;39791;53.184;5.486;2024-02-26T01:49:34;13.20;99.90
53880;DHT22;39791;53.184;5.486;2024-02-26T01:52:00;13.30;99.90
53880;DHT22;39791;53.184;5.486;2024-02-26T01:54:27;13.30;99.90
53880;DHT22;39791;53.184;5.486;2024-02-26T01:56:53;14.20;99.90
53880;DHT22;39791;53.184;5.486;2024-02-26T01:59:19;14.20;99.90
53880;DHT22;39791;53.184;5.486;2024-02-26T02:01:49;12.90;99.90
53880;DHT22;39791;53.184;5.486;2024-02-26T02:04:17;13.00;99.90
53880;DHT22;39791;53.184;5.486;2024-02-26T02:06:45;13.00;99.90
53880;DHT22;39791;53.184;5.486;2024-02-26T02:09:11;13.30;99.90
53880;DHT22;39791;53.184;5.486;2024-02-26T02:11:37;12.90;99.90
53880;DHT22;39791;53.184;5.486;2024-02-26T02:14:03;12.90;99.90
53880;DHT22;39791;53.184;5.486;2024-02-26T02:16:29;13.30;99.90
53880;DHT22;39791;53.184;5.486;2024-02-26T02:18:54;12.90;99.90
53880;DHT22;39791;53.184;5.486;2024-02-26T02:21:20;13.30;99.90
53880;DHT22;39791;53.184;5.486;2024-02-26T02:23:46;13.00;99.90
53880;DHT22;39791;53.184;5.486;2024-02-26T02:26:15;12.90;99.90
53880;DHT22;39791;53.184;5.486;2024-02-26T02:28:41;13.30;99.90
53880;DHT22;39791;53.184;5.486;2024-02-26T02:31:07;13.60;99.90
53880;DHT22;39791;53.184;5.486;2024-02-26T02:33:34;13.60;99.90
53880;DHT22;39791;53.184;5.486;2024-02-26T02:36:00;12.90;99.90
53880;DHT22;39791;53.184;5.486;2024-02-26T02:38:25;13.30;99.90
53880;DHT22;39791;53.184;5.486;2024-02-26T02:40:54;14.60;99.90
53880;DHT22;39791;53.184;5.486;2024-02-26T02:43:20;13.20;99.90
53880;DHT22;39791;53.184;5.486;2024-02-26T02:45:46;12.90;99.90
53880;DHT22;39791;53.184;5.486;2024-02-26T02:48:11;13.00;99.90
53880;DHT22;39791;53.184;5.486;2024-02-26T02:50:37;13.30;99.90
53880;DHT22;39791;53.184;5.486;2024-02-26T02:53:03;13.30;99.90
53880;DHT22;39791;53.184;5.486;2024-02-26T02:55:29;13.30;99.90
53880;DHT22;39791;53.184;5.486;2024-02-26T02:57:54;13.00;99.90
53880;DHT22;39791;53.184;5.486;2024-02-26T03:00:20;13.30;99.90
53880;DHT22;39791;53.184;5.486;2024-02-26T03:02:48;13.10;99.90
53880;DHT22;39791;53.184;5.486;2024-02-26T03:05:14;13.30;99.90
53880;DHT22;39791;53.184;5.486;2024-02-26T03:07:39;13.30;99.90
53880;DHT22;39791;53.184;5.486;2024-02-26T03:10:05;13.10;99.90
53880;DHT22;39791;53.184;5.486;2024-02-26T03:12:32;12.90;99.90
53880;DHT22;39791;53.184;5.486;2024-02-26T03:14:57;13.20;99.90
53880;DHT22;39791;53.184;5.486;2024-02-26T03:17:23;13.30;99.90
53880;DHT22;39791;53.184;5.486;2024-02-26T03:19:50;13.00;99.90
53880;DHT22;39791;53.184;5.486;2024-02-26T03:22:19;13.00;99.90
53880;DHT22;39791;53.184;5.486;2024-02-26T03:24:45;13.90;99.90
53880;DHT22;39791;53.184;5.486;2024-02-26T03:27:10;12.90;99.90
53880;DHT22;39791;53.184;5.486;2024-02-26T03:29:37;12.90;99.90
53880;DHT22;39791;53.184;5.486;2024-02-26T03:32:03;13.20;99.90
53880;DHT22;39791;53.184;5.486;2024-02-26T03:34:29;13.20;99.90
53880;DHT22;39791;53.184;5.486;2024-02-26T03:36:56;12.90;99.90
53880;DHT22;39791;53.184;5.486;2024-02-26T03:39:21;13.00;99.90
53880;DHT22;39791;53.184;5.486;2024-02-26T03:41:48;13.00;99.90
53880;DHT22;39791;53.184;5.486;2024-02-26T03:44:14;13.00;99.90
53880;DHT22;39791;53.184;5.486;2024-02-26T03:46:39;13.20;99.90
53880;DHT22;39791;53.184;5.486;2024-02-26T03:49:05;13.10;99.90
53880;DHT22;39791;53.184;5.486;2024-02-26T03:51:30;12.90;99.90
53880;DHT22;39791;53.184;5.486;2024-02-26T03:53:57;13.20;99.90
53880;DHT22;39791;53.184;5.486;2024-02-26T03:56:23;12.90;99.90
53880;DHT22;39791;53.184;5.486;2024-02-26T03:58:49;13.00;99.90
53880;DHT22;39791;53.184;5.486;2024-02-26T04:01:15;12.90;99.90
53880;DHT22;39791;53.184;5.486;2024-02-26T04:03:41;13.10;99.90
53880;DHT22;39791;53.184;5.486;2024-02-26T04:06:11;13.20;99.90
53880;DHT22;39791;53.184;5.486;2024-02-26T04:08:40;14.50;99.90
53880;DHT22;39791;53.184;5.486;2024-02-26T04:11:06;12.90;99.90
53880;DHT22;39791;53.184;5.486;2024-02-26T04:13:36;13.00;99.90
53880;DHT22;39791;53.184;5.486;2024-02-26T04:16:04;12.90;99.90
53880;DHT22;39791;53.184;5.486;2024-02-26T04:18:30;12.90;99.90
53880;DHT22;39791;53.184;5.486;2024-02-26T04:20:55;13.80;99.90
53880;DHT22;39791;53.184;5.486;2024-02-26T04:23:22;13.90;99.90
53880;DHT22;39791;53.184;5.486;2024-02-26T04:25:48;13.20;99.90
53880;DHT22;39791;53.184;5.486;2024-02-26T04:28:13;13.10;99.90
53880;DHT22;39791;53.184;5.486;2024-02-26T04:30:39;14.30;99.90
53880;DHT22;39791;53.184;5.486;2024-02-26T04:33:04;13.10;99.90
53880;DHT22;39791;53.184;5.486;2024-02-26T04:35:30;13.70;99.90
53880;DHT22;39791;53.184;5.486;2024-02-26T04:37:56;13.50;99.90
53880;DHT22;39791;53.184;5.486;2024-02-26T04:40:22;13.70;99.90
53880;DHT22;39791;53.184;5.486;2024-02-26T04:42:47;13.40;99.90
53880;DHT22;39791;53.184;5.486;2024-02-26T04:45:13;13.30;99.90
53880;DHT22;39791;53.184;5.486;2024-02-26T04:47:39;13.10;99.90
53880;DHT22;39791;53.184;5.486;2024-02-26T04:50:05;13.00;99.90
53880;DHT22;39791;53.184;5.486;2024-02-26T04:52:30;13.10;99.90
53880;DHT22;39791;53.184;5.486;2024-02-26T04:54:56;13.10;99.90
53880;DHT22;39791;53.184;5.486;2024-02-26T04:57:22;13.80;99.90
53880;DHT22;39791;53.184;5.486;2024-02-26T04:59:47;13.00;99.90
53880;DHT22;39791;53.184;5.486;2024-02-26T05:02:13;13.20;99.90
53880;DHT22;39791;53.184;5.486;2024-02-26T05:04:39;12.90;99.90
53880;DHT22;39791;53.184;5.486;2024-02-26T05:07:05;13.20;99.90
53880;DHT22;39791;53.184;5.486;2024-02-26T05:09:31;13.00;99.90
53880;DHT22;39791;53.184;5.486;2024-02-26T05:11:57;12.90;99.90
53880;DHT22;39791;53.184;5.486;2024-02-26T05:14:23;13.30;99.90
53880;DHT22;39791;53.184;5.486;2024-02-26T05:16:48;13.10;99.90
53880;DHT22;39791;53.184;5.486;2024-02-26T05:19:14;13.30;99.90
53880;DHT22;39791;53.184;5.486;2024-02-26T05:21:39;13.40;99.90
53880;DHT22;39791;53.184;5.486;2024-02-26T05:24:06;13.40;99.90
53880;DHT22;39791;53.184;5.486;2024-02-26T05:26:31;13.10;99.90
53880;DHT22;39791;53.184;5.486;2024-02-26T05:28:57;13.30;99.90
53880;DHT22;39791;53.184;5.486;2024-02-26T05:31:26;14.00;99.90
53880;DHT22;39791;53.184;5.486;2024-02-26T05:33:51;13.50;99.90
53880;DHT22;39791;53.184;5.486;2024-02-26T05:36:21;13.40;99.90
53880;DHT22;39791;53.184;5.486;2024-02-26T05:38:48;13.40;99.90
53880;DHT22;39791;53.184;5.486;2024-02-26T05:41:17;13.50;99.90
53880;DHT22;39791;53.184;5.486;2024-02-26T05:43:52;13.40;99.90
53880;DHT22;39791;53.184;5.486;2024-02-26T05:46:18;13.20;99.90
53880;DHT22;39791;53.184;5.486;2024-02-26T05:48:45;13.40;99.90
53880;DHT22;39791;53.184;5.486;2024-02-26T05:51:11;13.50;99.90
53880;DHT22;39791;53.184;5.486;2024-02-26T05:53:36;13.30;99.90
53880;DHT22;39791;53.184;5.486;2024-02-26T05:56:02;13.30;99.90
53880;DHT22;39791;53.184;5.486;2024-02-26T05:58:28;13.20;99.90
53880;DHT22;39791;53.184;5.486;2024-02-26T06:00:53;13.40;99.90
53880;DHT22;39791;53.184;5.486;2024-02-26T06:03:19;13.30;99.90
53880;DHT22;39791;53.184;5.486;2024-02-26T06:05:44;13.30;99.90
53880;DHT22;39791;53.184;5.486;2024-02-26T06:08:10;13.70;99.90
53880;DHT22;39791;53.184;5.486;2024-02-26T06:10:35;13.20;99.90
53880;DHT22;39791;53.184;5.486;2024-02-26T06:13:01;13.60;99.90
53880;DHT22;39791;53.184;5.486;2024-02-26T06:15:26;13.20;99.90
53880;DHT22;39791;53.184;5.486;2024-02-26T06:17:52;13.20;99.90
53880;DHT22;39791;53.184;5.486;2024-02-26T06:20:18;13.20;99.90
53880;DHT22;39791;53.184;5.486;2024-02-26T06:22:43;13.80;99.90
53880;DHT22;39791;53.184;5.486;2024-02-26T06:25:09;13.80;99.90
53880;DHT22;39791;53.184;5.486;2024-02-26T06:27:35;13.30;99.90
53880;DHT22;39791;53.184;5.486;2024-02-26T06:30:01;13.20;99.90
53880;DHT22;39791;53.184;5.486;2024-02-26T06:32:26;13.90;99.90
53880;DHT22;39791;53.184;5.486;2024-02-26T06:34:55;13.90;99.90
53880;DHT22;39791;53.184;5.486;2024-02-26T06:37:20;13.40;99.90
53880;DHT22;39791;53.184;5.486;2024-02-26T06:39:46;13.30;99.90
53880;DHT22;39791;53.184;5.486;2024-02-26T06:42:12;13.30;99.90
53880;DHT22;39791;53.184;5.486;2024-02-26T06:44:37;13.40;99.90
53880;DHT22;39791;53.184;5.486;2024-02-26T06:47:03;13.30;99.90
53880;DHT22;39791;53.184;5.486;2024-02-26T06:49:29;13.30;99.90
53880;DHT22;39791;53.184;5.486;2024-02-26T06:51:55;13.30;99.90
53880;DHT22;39791;53.184;5.486;2024-02-26T06:54:21;13.30;99.90
53880;DHT22;39791;53.184;5.486;2024-02-26T06:56:46;13.40;99.90
53880;DHT22;39791;53.184;5.486;2024-02-26T06:59:12;13.40;99.90
53880;DHT22;39791;53.184;5.486;2024-02-26T07:01:40;13.90;99.90
53880;DHT22;39791;53.184;5.486;2024-02-26T07:04:09;13.30;99.90
53880;DHT22;39791;53.184;5.486;2024-02-26T07:06:36;13.30;99.90
53880;DHT22;39791;53.184;5.486;2024-02-26T07:09:02;13.20;99.90
53880;DHT22;39791;53.184;5.486;2024-02-26T07:11:28;13.20;99.90
53880;DHT22;39791;53.184;5.486;2024-02-26T07:13:53;13.30;99.90
53880;DHT22;39791;53.184;5.486;2024-02-26T07:16:19;13.30;99.90
53880;DHT22;39791;53.184;5.486;2024-02-26T07:18:44;13.30;99.90
53880;DHT22;39791;53.184;5.486;2024-02-26T07:21:11;13.80;99.90
53880;DHT22;39791;53.184;5.486;2024-02-26T07:23:37;13.20;99.90
53880;DHT22;39791;53.184;5.486;2024-02-26T07:26:03;13.30;99.90
53880;DHT22;39791;53.184;5.486;2024-02-26T07:28:28;13.30;99.90
53880;DHT22;39791;53.184;5.486;2024-02-26T07:30:54;14.00;99.90
53880;DHT22;39791;53.184;5.486;2024-02-26T07:33:20;13.20;99.90
53880;DHT22;39791;53.184;5.486;2024-02-26T07:35:45;13.20;99.90
53880;DHT22;39791;53.184;5.486;2024-02-26T07:38:11;13.30;99.90
53880;DHT22;39791;53.184;5.486;2024-02-26T07:40:38;13.30;99.90
53880;DHT22;39791;53.184;5.486;2024-02-26T07:43:04;13.40;99.90
53880;DHT22;39791;53.184;5.486;2024-02-26T07:45:29;13.30;99.90
53880;DHT22;39791;53.184;5.486;2024-02-26T07:47:55;13.50;99.90
53880;DHT22;39791;53.184;5.486;2024-02-26T07:50:21;13.40;99.90
53880;DHT22;39791;53.184;5.486;2024-02-26T07:52:46;13.50;99.90
53880;DHT22;39791;53.184;5.486;2024-02-26T07:55:12;13.40;99.90
53880;DHT22;39791;53.184;5.486;2024-02-26T07:57:41;13.40;99.90
53880;DHT22;39791;53.184;5.486;2024-02-26T08:00:07;13.50;99.90
53880;DHT22;39791;53.184;5.486;2024-02-26T08:02:34;13.60;99.90
53880;DHT22;39791;53.184;5.486;2024-02-26T08:05:00;13.60;99.90
53880;DHT22;39791;53.184;5.486;2024-02-26T08:07:25;13.60;99.90
53880;DHT22;39791;53.184;5.486;2024-02-26T08:09:52;13.60;99.90
53880;DHT22;39791;53.184;5.486;2024-02-26T08:12:18;13.60;99.90
53880;DHT22;39791;53.184;5.486;2024-02-26T08:14:43;13.60;99.90
53880;DHT22;39791;53.184;5.486;2024-02-26T08:17:09;13.60;99.90
53880;DHT22;39791;53.184;5.486;2024-02-26T08:19:35;13.70;99.90
53880;DHT22;39791;53.184;5.486;2024-02-26T08:22:01;13.90;99.90
53880;DHT22;39791;53.184;5.486;2024-02-26T08:24:27;13.80;99.90
53880;DHT22;39791;53.184;5.486;2024-02-26T08:26:53;13.80;99.90
53880;DHT22;39791;53.184;5.486;2024-02-26T08:29:19;15.10;99.90
53880;DHT22;39791;53.184;5.486;2024-02-26T08:31:44;13.80;99.90
53880;DHT22;39791;53.184;5.486;2024-02-26T08:34:10;13.80;99.90
53880;DHT22;39791;53.184;5.486;2024-02-26T08:36:36;13.90;99.90
53880;DHT22;39791;53.184;5.486;2024-02-26T08:39:02;14.00;99.90
53880;DHT22;39791;53.184;5.486;2024-02-26T08:41:27;14.00;99.90
53880;DHT22;39791;53.184;5.486;2024-02-26T08:43:53;14.80;99.90
53880;DHT22;39791;53.184;5.486;2024-02-26T08:46:20;14.10;99.90
53880;DHT22;39791;53.184;5.486;2024-02-26T08:48:45;14.50;99.90
53880;DHT22;39791;53.184;5.486;2024-02-26T08:51:11;14.20;99.90
53880;DHT22;39791;53.184;5.486;2024-02-26T08:53:36;14.20;99.90
53880;DHT22;39791;53.184;5.486;2024-02-26T08:56:02;14.20;99.90
53880;DHT22;39791;53.184;5.486;2024-02-26T08:58:28;14.20;99.90
53880;DHT22;39791;53.184;5.486;2024-02-26T09:00:54;14.10;99.90
53880;DHT22;39791;53.184;5.486;2024-02-26T09:03:20;15.00;99.90
53880;DHT22;39791;53.184;5.486;2024-02-26T09:05:46;14.30;99.90
53880;DHT22;39791;53.184;5.486;2024-02-26T09:08:12;14.30;99.90
53880;DHT22;39791;53.184;5.486;2024-02-26T09:10:38;14.30;99.90
53880;DHT22;39791;53.184;5.486;2024-02-26T09:13:04;14.30;99.90
53880;DHT22;39791;53.184;5.486;2024-02-26T09:15:30;14.30;99.90
53880;DHT22;39791;53.184;5.486;2024-02-26T09:17:55;14.40;99.90
53880;DHT22;39791;53.184;5.486;2024-02-26T09:20:21;14.40;99.90
53880;DHT22;39791;53.184;5.486;2024-02-26T09:22:47;14.50;99.90
53880;DHT22;39791;53.184;5.486;2024-02-26T09:25:13;14.90;99.90
53880;DHT22;39791;53.184;5.486;2024-02-26T09:27:41;14.50;99.90
53880;DHT22;39791;53.184;5.486;2024-02-26T09:30:12;15.60;99.90
53880;DHT22;39791;53.184;5.486;2024-02-26T09:32:38;14.40;99.90
53880;DHT22;39791;53.184;5.486;2024-02-26T09:35:05;14.50;99.90
53880;DHT22;39791;53.184;5.486;2024-02-26T09:37:30;14.60;99.90
53880;DHT22;39791;53.184;5.486;2024-02-26T09:39:56;14.70;99.90
53880;DHT22;39791;53.184;5.486;2024-02-26T09:42:25;14.60;99.90
53880;DHT22;39791;53.184;5.486;2024-02-26T09:44:54;14.70;99.90
53880;DHT22;39791;53.184;5.486;2024-02-26T09:47:23;14.70;99.90
53880;DHT22;39791;53.184;5.486;2024-02-26T09:49:52;15.60;99.90
53880;DHT22;39791;53.184;5.486;2024-02-26T09:52:19;14.70;99.90
53880;DHT22;39791;53.184;5.486;2024-02-26T09:54:48;14.70;99.90
53880;DHT22;39791;53.184;5.486;2024-02-26T09:57:15;15.60;99.90
53880;DHT22;39791;53.184;5.486;2024-02-26T09:59:43;14.80;99.90
53880;DHT22;39791;53.184;5.486;2024-02-26T10:02:12;14.80;99.90
53880;DHT22;39791;53.184;5.486;2024-02-26T10:04:39;14.80;99.90
53880;DHT22;39791;53.184;5.486;2024-02-26T10:07:10;14.90;99.90
53880;DHT22;39791;53.184;5.486;2024-02-26T10:09:36;14.90;99.90
53880;DHT22;39791;53.184;5.486;2024-02-26T10:12:10;14.90;99.90
53880;DHT22;39791;53.184;5.486;2024-02-26T10:14:36;15.00;99.90
53880;DHT22;39791;53.184;5.486;2024-02-26T10:17:02;15.00;99.90
53880;DHT22;39791;53.184;5.486;2024-02-26T10:19:29;15.00;99.90
53880;DHT22;39791;53.184;5.486;2024-02-26T10:21:59;15.20;99.90
53880;DHT22;39791;53.184;5.486;2024-02-26T10:24:26;15.10;99.90
53880;DHT22;39791;53.184;5.486;2024-02-26T10:26:52;15.90;70.40
53880;DHT22;39791;53.184;5.486;2024-02-26T10:29:19;15.20;1.00
53880;DHT22;39791;53.184;5.486;2024-02-26T10:31:45;15.10;99.90
53880;DHT22;39791;53.184;5.486;2024-02-26T10:34:11;16.20;1.00
53880;DHT22;39791;53.184;5.486;2024-02-26T10:36:37;15.20;99.90
53880;DHT22;39791;53.184;5.486;2024-02-26T10:39:05;15.10;1.00
53880;DHT22;39791;53.184;5.486;2024-02-26T10:41:30;15.10;99.90
53880;DHT22;39791;53.184;5.486;2024-02-26T10:43:58;15.40;1.00
53880;DHT22;39791;53.184;5.486;2024-02-26T10:46:24;15.10;94.00
53880;DHT22;39791;53.184;5.486;2024-02-26T10:48:51;15.10;1.00
53880;DHT22;39791;53.184;5.486;2024-02-26T10:51:22;15.10;99.90
53880;DHT22;39791;53.184;5.486;2024-02-26T10:53:52;15.10;95.60
53880;DHT22;39791;53.184;5.486;2024-02-26T10:56:24;16.00;1.00
53880;DHT22;39791;53.184;5.486;2024-02-26T10:58:51;15.20;99.90
53880;DHT22;39791;53.184;5.486;2024-02-26T11:01:18;15.20;99.90
53880;DHT22;39791;53.184;5.486;2024-02-26T11:03:44;15.20;42.70
53880;DHT22;39791;53.184;5.486;2024-02-26T11:06:12;16.10;1.00
53880;DHT22;39791;53.184;5.486;2024-02-26T11:08:38;15.50;1.00
53880;DHT22;39791;53.184;5.486;2024-02-26T11:11:04;15.20;99.90
53880;DHT22;39791;53.184;5.486;2024-02-26T11:13:31;15.30;99.90
53880;DHT22;39791;53.184;5.486;2024-02-26T11:15:57;15.30;99.90
53880;DHT22;39791;53.184;5.486;2024-02-26T11:18:26;15.30;99.90
53880;DHT22;39791;53.184;5.486;2024-02-26T11:20:52;15.30;99.90
53880;DHT22;39791;53.184;5.486;2024-02-26T11:23:22;15.70;99.90
53880;DHT22;39791;53.184;5.486;2024-02-26T11:25:49;15.30;99.90
53880;DHT22;39791;53.184;5.486;2024-02-26T11:28:18;15.30;99.90
53880;DHT22;39791;53.184;5.486;2024-02-26T11:30:47;15.30;1.00
53880;DHT22;39791;53.184;5.486;2024-02-26T11:33:14;16.10;1.00
53880;DHT22;39791;53.184;5.486;2024-02-26T11:35:40;15.20;99.90
53880;DHT22;39791;53.184;5.486;2024-02-26T11:38:06;15.20;99.90
53880;DHT22;39791;53.184;5.486;2024-02-26T11:40:33;15.60;99.90
53880;DHT22;39791;53.184;5.486;2024-02-26T11:42:59;15.20;99.90
53880;DHT22;39791;53.184;5.486;2024-02-26T11:48:29;15.50;99.90
53880;DHT22;39791;53.184;5.486;2024-02-26T11:50:55;15.20;99.90
53880;DHT22;39791;53.184;5.486;2024-02-26T11:53:27;15.70;99.90
53880;DHT22;39791;53.184;5.486;2024-02-26T11:59:09;15.30;99.90
53880;DHT22;39791;53.184;5.486;2024-02-26T12:01:45;15.30;99.90
53880;DHT22;39791;53.184;5.486;2024-02-26T12:04:19;15.30;99.90
53880;DHT22;39791;53.184;5.486;2024-02-26T12:06:57;15.30;99.90
53880;DHT22;39791;53.184;5.486;2024-02-26T12:09:39;15.40;99.90
53880;DHT22;39791;53.184;5.486;2024-02-26T12:14:52;15.40;99.90
53880;DHT22;39791;53.184;5.486;2024-02-26T12:17:23;15.40;99.90
53880;DHT22;39791;53.184;5.486;2024-02-26T12:19:49;15.90;99.90
53880;DHT22;39791;53.184;5.486;2024-02-26T12:22:16;15.40;99.90
53880;DHT22;39791;53.184;5.486;2024-02-26T12:24:44;15.40;99.90
53880;DHT22;39791;53.184;5.486;2024-02-26T12:27:10;15.40;99.90
53880;DHT22;39791;53.184;5.486;2024-02-26T12:29:37;15.30;99.90
53880;DHT22;39791;53.184;5.486;2024-02-26T12:32:04;15.30;99.90
53880;DHT22;39791;53.184;5.486;2024-02-26T12:34:31;15.20;99.90
53880;DHT22;39791;53.184;5.486;2024-02-26T12:36:57;15.20;92.90
53880;DHT22;39791;53.184;5.486;2024-02-26T12:39:23;15.40;25.60
53880;DHT22;39791;53.184;5.486;2024-02-26T12:41:49;15.20;47.50
53880;DHT22;39791;53.184;5.486;2024-02-26T12:44:17;15.40;99.90
53880;DHT22;39791;53.184;5.486;2024-02-26T12:46:43;15.20;91.50
53880;DHT22;39791;53.184;5.486;2024-02-26T12:49:14;15.10;6.80
53880;DHT22;39791;53.184;5.486;2024-02-26T12:51:40;15.10;1.00
53880;DHT22;39791;53.184;5.486;2024-02-26T12:54:07;15.10;1.00
53880;DHT22;39791;53.184;5.486;2024-02-26T12:56:34;15.10;1.00
53880;DHT22;39791;53.184;5.486;2024-02-26T12:59:03;15.60;1.00
53880;DHT22;39791;53.184;5.486;2024-02-26T13:01:30;15.00;1.00
53880;DHT22;39791;53.184;5.486;2024-02-26T13:03:56;15.20;1.00
53880;DHT22;39791;53.184;5.486;2024-02-26T13:06:22;15.00;1.00
53880;DHT22;39791;53.184;5.486;2024-02-26T13:08:48;15.00;1.00
53880;DHT22;39791;53.184;5.486;2024-02-26T13:11:15;15.00;1.00
53880;DHT22;39791;53.184;5.486;2024-02-26T13:13:40;15.00;1.00
53880;DHT22;39791;53.184;5.486;2024-02-26T13:16:09;15.00;1.00
53880;DHT22;39791;53.184;5.486;2024-02-26T13:18:34;15.40;1.00
53880;DHT22;39791;53.184;5.486;2024-02-26T13:21:08;15.00;1.00
53880;DHT22;39791;53.184;5.486;2024-02-26T13:23:34;15.60;1.00
53880;DHT22;39791;53.184;5.486;2024-02-26T13:26:00;15.00;1.00
53880;DHT22;39791;53.184;5.486;2024-02-26T13:28:25;15.20;1.00
53880;DHT22;39791;53.184;5.486;2024-02-26T13:30:57;14.90;99.90
53880;DHT22;39791;53.184;5.486;2024-02-26T13:33:24;14.90;99.90
53880;DHT22;39791;53.184;5.486;2024-02-26T13:35:50;14.70;99.90
53880;DHT22;39791;53.184;5.486;2024-02-26T13:38:16;15.30;99.90
53880;DHT22;39791;53.184;5.486;2024-02-26T13:40:42;15.60;99.90
53880;DHT22;39791;53.184;5.486;2024-02-26T13:43:08;14.80;99.90
53880;DHT22;39791;53.184;5.486;2024-02-26T13:45:35;14.80;1.00
53880;DHT22;39791;53.184;5.486;2024-02-26T13:48:10;14.80;1.00
53880;DHT22;39791;53.184;5.486;2024-02-26T13:50:37;14.80;99.90
53880;DHT22;39791;53.184;5.486;2024-02-26T13:53:03;14.80;1.00
53880;DHT22;39791;53.184;5.486;2024-02-26T13:55:30;14.80;1.00
53880;DHT22;39791;53.184;5.486;2024-02-26T13:57:57;14.80;99.90
53880;DHT22;39791;53.184;5.486;2024-02-26T14:00:23;14.80;99.90
53880;DHT22;39791;53.184;5.486;2024-02-26T14:02:50;14.70;99.90
53880;DHT22;39791;53.184;5.486;2024-02-26T14:05:16;14.70;99.90
53880;DHT22;39791;53.184;5.486;2024-02-26T14:07:42;14.70;99.90
53880;DHT22;39791;53.184;5.486;2024-02-26T14:10:09;14.90;99.90
53880;DHT22;39791;53.184;5.486;2024-02-26T14:12:37;14.80;99.90
53880;DHT22;39791;53.184;5.486;2024-02-26T14:15:03;14.80;99.90
53880;DHT22;39791;53.184;5.486;2024-02-26T14:17:30;14.80;99.90
53880;DHT22;39791;53.184;5.486;2024-02-26T14:19:56;14.80;99.90
53880;DHT22;39791;53.184;5.486;2024-02-26T14:22:21;14.80;99.90
53880;DHT22;39791;53.184;5.486;2024-02-26T14:24:47;14.80;99.90
53880;DHT22;39791;53.184;5.486;2024-02-26T14:27:13;15.10;99.90
53880;DHT22;39791;53.184;5.486;2024-02-26T14:29:41;14.80;99.90
53880;DHT22;39791;53.184;5.486;2024-02-26T14:32:09;15.30;99.90
53880;DHT22;39791;53.184;5.486;2024-02-26T14:34:34;14.80;99.90
53880;DHT22;39791;53.184;5.486;2024-02-26T14:37:00;14.90;99.90
53880;DHT22;39791;53.184;5.486;2024-02-26T14:39:25;14.90;99.90
53880;DHT22;39791;53.184;5.486;2024-02-26T14:41:51;14.90;99.90
53880;DHT22;39791;53.184;5.486;2024-02-26T14:44:17;14.90;99.90
53880;DHT22;39791;53.184;5.486;2024-02-26T14:46:42;14.90;99.90
53880;DHT22;39791;53.184;5.486;2024-02-26T14:49:08;15.90;99.90
53880;DHT22;39791;53.184;5.486;2024-02-26T14:51:34;14.90;99.90
53880;DHT22;39791;53.184;5.486;2024-02-26T14:54:00;14.90;99.90
53880;DHT22;39791;53.184;5.486;2024-02-26T14:56:27;14.90;99.90
53880;DHT22;39791;53.184;5.486;2024-02-26T14:58:53;14.80;99.90
53880;DHT22;39791;53.184;5.486;2024-02-26T15:01:18;14.90;99.90
53880;DHT22;39791;53.184;5.486;2024-02-26T15:03:44;14.90;99.90
53880;DHT22;39791;53.184;5.486;2024-02-26T15:06:09;14.90;99.90
53880;DHT22;39791;53.184;5.486;2024-02-26T15:08:35;15.00;99.90
53880;DHT22;39791;53.184;5.486;2024-02-26T15:11:01;15.40;99.90
53880;DHT22;39791;53.184;5.486;2024-02-26T15:13:27;15.00;99.90
53880;DHT22;39791;53.184;5.486;2024-02-26T15:15:52;15.00;99.90
53880;DHT22;39791;53.184;5.486;2024-02-26T15:18:18;14.90;99.90
53880;DHT22;39791;53.184;5.486;2024-02-26T15:20:44;14.80;99.90
53880;DHT22;39791;53.184;5.486;2024-02-26T15:23:09;15.20;99.90
53880;DHT22;39791;53.184;5.486;2024-02-26T15:25:35;14.90;99.90
53880;DHT22;39791;53.184;5.486;2024-02-26T15:28:01;14.90;99.90
53880;DHT22;39791;53.184;5.486;2024-02-26T15:30:27;14.90;99.90
53880;DHT22;39791;53.184;5.486;2024-02-26T15:32:55;14.90;99.90
53880;DHT22;39791;53.184;5.486;2024-02-26T15:35:21;14.90;99.90
53880;DHT22;39791;53.184;5.486;2024-02-26T15:37:47;14.90;99.90